createdAt,value
2022-08-03T00:02:21.342Z,29.56
2022-08-03T00:04:49.632Z,29.43
2022-08-03T00:07:18.393Z,29.24
2022-08-03T00:09:46.916Z,29.13
2022-08-03T00:12:15.387Z,29.11
2022-08-03T00:14:44.049Z,29.00
2022-08-03T00:17:12.742Z,28.75
2022-08-03T00:19:41.071Z,28.65
2022-08-03T00:22:09.420Z,28.40
2022-08-03T00:24:37.863Z,28.36
2022-08-03T00:27:06.466Z,28.32
2022-08-03T00:29:59.980Z,28.27
2022-08-03T00:32:24.041Z,28.08
2022-08-03T00:34:57.797Z,27.94
2022-08-03T00:37:41.301Z,27.95
2022-08-03T00:40:16.426Z,28.02
2022-08-03T00:42:55.906Z,28.01
2022-08-03T00:45:29.315Z,28.05
2022-08-03T00:47:58.667Z,28.04
2022-08-03T00:50:28.901Z,27.91
2022-08-03T00:53:00.269Z,27.77
2022-08-03T00:55:29.070Z,27.64
2022-08-03T00:57:59.006Z,27.61
2022-08-03T01:00:29.229Z,27.60
2022-08-03T01:02:58.059Z,27.57
2022-08-03T01:05:27.146Z,27.53
2022-08-03T01:08:07.304Z,27.41
2022-08-03T01:10:42.346Z,27.21
2022-08-03T01:14:01.583Z,27.09
2022-08-03T01:16:21.062Z,26.93
2022-08-03T01:19:15.551Z,26.80
2022-08-03T01:22:19.454Z,26.71
2022-08-03T01:24:59.307Z,26.58
2022-08-03T01:27:44.717Z,26.48
2022-08-03T01:30:14.322Z,26.32
2022-08-03T01:33:02.119Z,26.12
2022-08-03T01:35:44.272Z,26.02
2022-08-03T01:38:23.900Z,25.98
2022-08-03T01:40:58.662Z,25.92
2022-08-03T01:44:26.681Z,25.71
2022-08-03T01:46:21.701Z,25.61
2022-08-03T01:48:51.405Z,25.51
2022-08-03T01:51:22.441Z,25.47
2022-08-03T01:53:53.343Z,25.39
2022-08-03T01:56:26.101Z,25.27
2022-08-03T01:58:56.626Z,25.12
2022-08-03T02:02:28.635Z,24.94
2022-08-03T02:04:19.562Z,24.77
2022-08-03T02:07:00.579Z,24.73
2022-08-03T02:09:33.786Z,24.72
2022-08-03T02:12:02.953Z,24.64
2022-08-03T02:14:32.435Z,24.49
2022-08-03T02:17:01.831Z,24.34
2022-08-03T02:19:35.714Z,24.20
2022-08-03T02:22:06.506Z,23.96
2022-08-03T02:24:34.976Z,23.76
2022-08-03T02:27:07.141Z,23.69
2022-08-03T02:29:41.159Z,23.61
2022-08-03T02:32:18.678Z,23.47
2022-08-03T02:34:51.819Z,23.38
2022-08-03T02:37:22.530Z,23.25
2022-08-03T02:39:54.270Z,23.17
2022-08-03T02:42:24.727Z,23.15
2022-08-03T02:44:56.900Z,23.11
2022-08-03T02:47:28.437Z,23.12
2022-08-03T02:50:19.200Z,23.16
2022-08-03T02:52:49.706Z,23.04
2022-08-03T02:55:21.061Z,22.90
2022-08-03T02:57:50.181Z,22.82
2022-08-03T03:00:27.687Z,22.72
2022-08-03T03:03:00.721Z,22.62
2022-08-03T03:05:56.152Z,22.48
2022-08-03T03:08:26.163Z,22.43
2022-08-03T03:11:00.742Z,22.40
2022-08-03T03:13:31.400Z,22.36
2022-08-03T03:16:03.841Z,22.34
2022-08-03T03:18:37.063Z,22.35
2022-08-03T03:21:06.296Z,22.35
2022-08-03T03:23:40.581Z,22.35
2022-08-03T03:26:09.227Z,22.32
2022-08-03T03:28:38.346Z,22.27
2022-08-03T03:31:08.741Z,22.11
2022-08-03T03:33:38.340Z,21.92
2022-08-03T03:36:09.804Z,21.87
2022-08-03T03:38:38.345Z,21.82
2022-08-03T03:41:07.271Z,21.79
2022-08-03T03:43:36.099Z,21.73
2022-08-03T03:46:05.104Z,21.71
2022-08-03T03:48:34.341Z,21.75
2022-08-03T03:51:04.020Z,21.71
2022-08-03T03:53:32.579Z,21.68
2022-08-03T03:56:02.451Z,21.68
2022-08-03T03:58:33.381Z,21.66
2022-08-03T04:01:02.540Z,21.65
2022-08-03T04:03:31.460Z,21.62
2022-08-03T04:06:18.027Z,21.61
2022-08-03T04:09:05.379Z,21.58
2022-08-03T04:11:40.584Z,21.55
2022-08-03T04:14:16.078Z,21.54
2022-08-03T04:16:50.155Z,21.55
2022-08-03T04:19:39.789Z,21.54
2022-08-03T04:22:12.581Z,21.57
2022-08-03T04:24:49.381Z,21.53
2022-08-03T04:27:26.662Z,21.50
2022-08-03T04:29:58.025Z,21.47
2022-08-03T04:32:29.708Z,21.42
2022-08-03T04:34:58.175Z,21.45
2022-08-03T04:37:32.260Z,21.46
2022-08-03T04:40:05.145Z,21.48
2022-08-03T04:42:35.074Z,21.50
2022-08-03T04:45:04.911Z,21.52
2022-08-03T04:47:35.465Z,21.53
2022-08-03T04:50:07.150Z,21.54
2022-08-03T04:52:38.982Z,21.55
2022-08-03T04:55:08.105Z,21.52
2022-08-03T04:57:36.425Z,21.50
2022-08-03T05:00:06.871Z,21.50
2022-08-03T05:02:35.971Z,21.48
2022-08-03T05:05:05.221Z,21.47
2022-08-03T05:07:35.862Z,21.44
2022-08-03T05:10:15.706Z,21.43
2022-08-03T05:12:46.507Z,21.40
2022-08-03T05:15:15.304Z,21.39
2022-08-03T05:17:43.780Z,21.36
2022-08-03T05:20:13.027Z,21.38
2022-08-03T05:22:41.650Z,21.35
2022-08-03T05:25:10.342Z,21.30
2022-08-03T05:27:47.675Z,21.32
2022-08-03T05:30:29.663Z,21.32
2022-08-03T05:33:02.747Z,21.31
2022-08-03T05:36:01.933Z,21.31
2022-08-03T05:38:23.950Z,21.25
2022-08-03T05:41:22.260Z,21.25
2022-08-03T05:43:47.059Z,21.21
2022-08-03T05:46:15.440Z,21.14
2022-08-03T05:48:44.330Z,21.12
2022-08-03T05:51:12.900Z,21.08
2022-08-03T05:53:42.972Z,21.07
2022-08-03T05:56:16.024Z,21.03
2022-08-03T05:58:48.451Z,21.01
2022-08-03T06:01:18.061Z,21.00
2022-08-03T06:03:47.495Z,21.00
2022-08-03T06:06:16.106Z,20.99
2022-08-03T06:08:45.278Z,20.98
2022-08-03T06:11:14.505Z,20.93
2022-08-03T06:13:43.611Z,20.91
2022-08-03T06:16:12.337Z,20.90
2022-08-03T06:18:41.355Z,20.89
2022-08-03T06:21:14.860Z,20.87
2022-08-03T06:23:54.157Z,20.85
2022-08-03T06:26:25.621Z,20.85
2022-08-03T06:28:54.683Z,20.82
2022-08-03T06:31:32.268Z,20.82
2022-08-03T06:34:32.657Z,20.78
2022-08-03T06:36:52.970Z,20.77
2022-08-03T06:39:23.227Z,20.75
2022-08-03T06:41:52.743Z,20.73
2022-08-03T06:44:21.153Z,20.70
2022-08-03T06:46:49.430Z,20.68
2022-08-03T06:49:17.723Z,20.65
2022-08-03T06:52:05.527Z,20.67
2022-08-03T06:54:34.597Z,20.67
2022-08-03T06:57:02.891Z,20.66
2022-08-03T07:00:10.769Z,20.61
2022-08-03T07:02:20.506Z,20.56
2022-08-03T07:04:49.818Z,20.55
2022-08-03T07:07:18.821Z,20.54
2022-08-03T07:09:55.706Z,20.57
2022-08-03T07:12:27.468Z,20.51
2022-08-03T07:15:00.414Z,20.49
2022-08-03T07:17:31.942Z,20.45
2022-08-03T07:20:01.003Z,20.39
2022-08-03T07:22:29.617Z,20.38
2022-08-03T07:24:58.181Z,20.36
2022-08-03T07:27:32.872Z,20.32
2022-08-03T07:30:01.861Z,20.25
2022-08-03T07:32:32.341Z,20.19
2022-08-03T07:35:01.531Z,20.10
2022-08-03T07:37:31.873Z,20.07
2022-08-03T07:40:01.162Z,20.08
2022-08-03T07:42:30.802Z,20.05
2022-08-03T07:45:00.745Z,20.01
2022-08-03T07:47:35.105Z,19.95
2022-08-03T07:50:08.576Z,19.97
2022-08-03T07:52:49.227Z,20.02
2022-08-03T07:55:22.743Z,20.05
2022-08-03T07:58:13.146Z,19.95
2022-08-03T08:00:42.002Z,19.89
2022-08-03T08:03:10.982Z,19.88
2022-08-03T08:05:39.625Z,19.87
2022-08-03T08:08:08.701Z,19.88
2022-08-03T08:10:37.862Z,19.91
2022-08-03T08:13:06.660Z,19.97
2022-08-03T08:15:35.150Z,19.98
2022-08-03T08:18:11.142Z,19.94
2022-08-03T08:20:40.115Z,19.92
2022-08-03T08:23:37.701Z,19.91
2022-08-03T08:25:59.390Z,19.91
2022-08-03T08:28:32.235Z,19.92
2022-08-03T08:31:02.741Z,19.91
2022-08-03T08:34:02.658Z,19.91
2022-08-03T08:36:19.941Z,19.87
2022-08-03T08:38:48.392Z,19.82
2022-08-03T08:41:16.899Z,19.83
2022-08-03T08:43:45.341Z,19.81
2022-08-03T08:46:23.515Z,19.80
2022-08-03T08:48:53.895Z,19.78
2022-08-03T08:51:23.525Z,19.79
2022-08-03T08:54:14.661Z,19.80
2022-08-03T08:56:44.261Z,19.78
2022-08-03T08:59:12.977Z,19.76
2022-08-03T09:01:41.380Z,19.74
2022-08-03T09:04:10.418Z,19.72
2022-08-03T09:06:38.820Z,19.73
2022-08-03T09:09:09.305Z,19.72
2022-08-03T09:12:13.745Z,19.68
2022-08-03T09:15:07.295Z,19.62
2022-08-03T09:17:42.582Z,19.58
2022-08-03T09:20:11.432Z,19.53
2022-08-03T09:23:01.220Z,19.44
2022-08-03T09:25:37.670Z,19.42
2022-08-03T09:28:13.382Z,19.42
2022-08-03T09:31:01.866Z,19.41
2022-08-03T09:33:36.041Z,19.39
2022-08-03T09:36:05.233Z,19.35
2022-08-03T09:38:33.614Z,19.36
2022-08-03T09:41:02.020Z,19.35
2022-08-03T09:43:46.982Z,19.33
2022-08-03T09:46:15.196Z,19.27
2022-08-03T09:48:43.410Z,19.27
2022-08-03T09:51:33.358Z,19.28
2022-08-03T09:54:07.589Z,19.23
2022-08-03T09:56:44.104Z,19.22
2022-08-03T09:59:15.466Z,19.22
2022-08-03T10:01:43.787Z,19.17
2022-08-03T10:04:18.113Z,19.18
2022-08-03T10:06:48.107Z,19.14
2022-08-03T10:09:17.860Z,19.08
2022-08-03T10:11:48.100Z,19.07
2022-08-03T10:14:23.463Z,19.09
2022-08-03T10:16:52.102Z,19.09
2022-08-03T10:19:20.680Z,19.07
2022-08-03T10:21:56.700Z,19.07
2022-08-03T10:24:30.909Z,19.08
2022-08-03T10:27:08.360Z,19.08
2022-08-03T10:29:40.101Z,19.02
2022-08-03T10:32:17.060Z,18.98
2022-08-03T10:34:46.824Z,18.92
2022-08-03T10:37:17.477Z,18.91
2022-08-03T10:39:55.681Z,18.86
2022-08-03T10:42:28.109Z,18.87
2022-08-03T10:45:04.578Z,18.88
2022-08-03T10:47:34.499Z,18.82
2022-08-03T10:50:04.256Z,18.78
2022-08-03T10:52:38.246Z,18.73
2022-08-03T10:55:52.657Z,18.67
2022-08-03T10:58:56.844Z,18.64
2022-08-03T11:01:58.081Z,18.61
2022-08-03T11:04:30.742Z,18.60
2022-08-03T11:07:23.951Z,18.50
2022-08-03T11:09:57.865Z,18.50
2022-08-03T11:12:34.826Z,18.49
2022-08-03T11:15:12.015Z,18.47
2022-08-03T11:17:46.407Z,18.41
2022-08-03T11:20:45.652Z,18.37
2022-08-03T11:23:14.581Z,18.35
2022-08-03T11:26:18.495Z,18.31
2022-08-03T11:28:48.895Z,18.32
2022-08-03T11:34:17.185Z,18.24
2022-08-03T11:37:21.446Z,18.25
2022-08-03T11:39:52.828Z,18.22
2022-08-03T11:42:24.270Z,18.17
2022-08-03T11:44:56.970Z,18.18
2022-08-03T11:47:30.500Z,18.17
2022-08-03T11:50:02.908Z,18.22
2022-08-03T11:52:40.099Z,18.26
2022-08-03T11:55:14.175Z,18.27
2022-08-03T11:59:03.379Z,18.25
2022-08-03T12:00:33.480Z,18.26
2022-08-03T12:03:03.384Z,18.26
2022-08-03T12:05:40.262Z,18.27
2022-08-03T12:08:13.697Z,18.28
2022-08-03T12:10:51.450Z,18.30
2022-08-03T12:14:08.809Z,18.32
2022-08-03T12:16:10.212Z,18.29
2022-08-03T12:18:38.790Z,18.31
2022-08-03T12:21:12.290Z,18.32
2022-08-03T12:23:41.296Z,18.35
2022-08-03T12:26:11.316Z,18.35
2022-08-03T12:28:49.786Z,18.37
2022-08-03T12:31:18.627Z,18.37
2022-08-03T12:33:59.041Z,18.38
2022-08-03T12:36:29.537Z,18.41
2022-08-03T12:39:06.495Z,18.41
2022-08-03T12:41:39.775Z,18.41
2022-08-03T12:44:10.020Z,18.40
2022-08-03T12:46:45.332Z,18.40
2022-08-03T12:49:19.857Z,18.38
2022-08-03T12:51:48.255Z,18.35
2022-08-03T12:54:24.422Z,18.31
2022-08-03T12:57:08.055Z,18.30
2022-08-03T12:59:45.191Z,18.27
2022-08-03T13:02:25.578Z,18.28
2022-08-03T13:04:56.010Z,18.29
2022-08-03T13:07:24.455Z,18.29
2022-08-03T13:09:58.956Z,18.29
2022-08-03T13:12:28.396Z,18.26
2022-08-03T13:14:59.278Z,18.26
2022-08-03T13:17:29.046Z,18.25
2022-08-03T13:19:57.726Z,18.28
2022-08-03T13:22:29.996Z,18.26
2022-08-03T13:24:59.277Z,18.23
2022-08-03T13:28:04.014Z,18.21
2022-08-03T13:30:29.942Z,18.13
2022-08-03T13:33:01.110Z,18.11
2022-08-03T13:35:29.682Z,18.09
2022-08-03T13:37:58.117Z,18.11
2022-08-03T13:40:30.789Z,18.13
2022-08-03T13:43:04.075Z,18.13
2022-08-03T13:45:32.541Z,18.12
2022-08-03T13:48:00.876Z,18.14
2022-08-03T13:50:29.401Z,18.16
2022-08-03T13:52:58.319Z,18.17
2022-08-03T13:55:27.761Z,18.19
2022-08-03T13:58:03.181Z,18.22
2022-08-03T14:00:35.756Z,18.24
2022-08-03T14:03:12.812Z,18.25
2022-08-03T14:05:43.724Z,18.31
2022-08-03T14:08:13.673Z,18.35
2022-08-03T14:10:44.534Z,18.36
2022-08-03T14:13:17.978Z,18.40
2022-08-03T14:15:51.346Z,18.45
2022-08-03T14:18:29.207Z,18.50
2022-08-03T14:21:06.938Z,18.53
2022-08-03T14:23:38.390Z,18.60
2022-08-03T14:26:07.772Z,18.64
2022-08-03T14:28:37.206Z,18.64
2022-08-03T14:31:08.509Z,18.65
2022-08-03T14:33:43.866Z,18.67
2022-08-03T14:36:12.326Z,18.72
2022-08-03T14:38:40.718Z,18.75
2022-08-03T14:41:11.981Z,18.77
2022-08-03T14:43:40.961Z,18.84
2022-08-03T14:46:29.476Z,18.92
2022-08-03T14:50:28.572Z,19.02
2022-08-03T14:51:51.646Z,19.11
2022-08-03T14:54:23.053Z,19.21
2022-08-03T14:56:51.563Z,19.29
2022-08-03T14:59:19.833Z,19.37
2022-08-03T15:02:06.400Z,19.43
2022-08-03T15:04:36.081Z,19.50
2022-08-03T15:07:04.722Z,19.60
2022-08-03T15:09:33.205Z,19.69
2022-08-03T15:12:01.774Z,19.62
2022-08-03T15:14:33.245Z,19.53
2022-08-03T15:17:03.374Z,19.57
2022-08-03T15:20:01.241Z,19.58
2022-08-03T15:22:20.776Z,19.60
2022-08-03T15:24:54.643Z,19.66
2022-08-03T15:27:23.429Z,19.69
2022-08-03T15:30:07.716Z,19.69
2022-08-03T15:32:38.316Z,19.72
2022-08-03T15:35:07.454Z,19.78
2022-08-03T15:37:35.916Z,19.83
2022-08-03T15:40:04.815Z,19.91
2022-08-03T15:42:34.719Z,20.01
2022-08-03T15:45:03.597Z,20.03
2022-08-03T15:47:31.917Z,20.11
2022-08-03T15:50:04.300Z,20.17
2022-08-03T15:52:34.877Z,20.27
2022-08-03T15:55:03.276Z,20.36
2022-08-03T15:57:31.596Z,20.39
2022-08-03T15:59:59.881Z,20.44
2022-08-03T16:02:28.557Z,20.48
2022-08-03T16:04:56.967Z,20.56
2022-08-03T16:08:02.904Z,20.63
2022-08-03T16:10:31.851Z,20.69
2022-08-03T16:13:01.127Z,20.73
2022-08-03T16:15:29.672Z,20.81
2022-08-03T16:17:57.998Z,20.91
2022-08-03T16:20:31.496Z,21.01
2022-08-03T16:23:10.621Z,21.12
2022-08-03T16:25:41.519Z,21.15
2022-08-03T16:28:14.394Z,21.24
2022-08-03T16:30:46.274Z,21.28
2022-08-03T16:33:17.451Z,21.35
2022-08-03T16:35:47.916Z,21.46
2022-08-03T16:38:19.176Z,21.57
2022-08-03T16:40:52.652Z,21.67
2022-08-03T16:43:27.199Z,21.76
2022-08-03T16:45:55.916Z,21.86
2022-08-03T16:48:24.166Z,21.86
2022-08-03T16:50:52.564Z,21.92
2022-08-03T16:53:33.657Z,22.03
2022-08-03T16:56:11.187Z,22.15
2022-08-03T16:58:42.342Z,22.27
2022-08-03T17:01:22.334Z,22.41
2022-08-03T17:04:03.025Z,22.53
2022-08-03T17:06:37.932Z,22.68
2022-08-03T17:09:20.810Z,22.75
2022-08-03T17:11:52.402Z,22.78
2022-08-03T17:14:28.325Z,22.80
2022-08-03T17:17:04.044Z,22.91
2022-08-03T17:19:33.497Z,23.03
2022-08-03T17:22:09.921Z,23.16
2022-08-03T17:24:46.341Z,23.28
2022-08-03T17:28:48.177Z,23.38
2022-08-03T17:30:16.716Z,23.47
2022-08-03T17:32:56.665Z,23.61
2022-08-03T17:35:34.202Z,23.73
2022-08-03T17:38:06.598Z,23.84
2022-08-03T17:40:37.997Z,23.93
2022-08-03T17:44:13.973Z,24.00
2022-08-03T17:46:15.281Z,24.07
2022-08-03T17:48:48.164Z,24.20
2022-08-03T17:51:34.862Z,24.32
2022-08-03T17:54:19.767Z,24.48
2022-08-03T17:57:22.762Z,24.61
2022-08-03T18:00:25.632Z,24.74
2022-08-03T18:03:21.015Z,24.91
2022-08-03T18:06:11.370Z,25.08
2022-08-03T18:08:56.036Z,25.18
2022-08-03T18:11:35.750Z,25.27
2022-08-03T18:14:16.576Z,25.39
2022-08-03T18:17:06.476Z,25.53
2022-08-03T18:20:02.611Z,25.70
2022-08-03T18:22:30.775Z,25.83
2022-08-03T18:25:00.556Z,25.96
2022-08-03T18:27:42.853Z,26.04
2022-08-03T18:30:16.189Z,26.08
2022-08-03T18:33:01.325Z,26.16
2022-08-03T18:35:53.264Z,26.33
2022-08-03T18:38:23.786Z,26.38
2022-08-03T18:40:52.702Z,26.37
2022-08-03T18:43:21.827Z,26.38
2022-08-03T18:46:33.928Z,26.44
2022-08-03T18:49:30.256Z,26.50
2022-08-03T18:52:37.547Z,26.69
2022-08-03T18:55:20.575Z,26.91
2022-08-03T18:57:56.736Z,27.10
2022-08-03T19:03:41.438Z,27.34
2022-08-03T19:06:20.653Z,27.43
2022-08-03T19:08:56.957Z,27.55
2022-08-03T19:12:12.671Z,27.64
2022-08-03T19:14:55.712Z,27.73
2022-08-03T19:17:29.249Z,27.90
2022-08-03T19:20:01.398Z,28.06
2022-08-03T19:22:31.762Z,28.08
2022-08-03T19:25:03.364Z,28.03
2022-08-03T19:27:33.037Z,28.10
2022-08-03T19:30:14.070Z,28.19
2022-08-03T19:32:51.756Z,28.28
2022-08-03T19:35:51.399Z,28.34
2022-08-03T19:38:10.076Z,28.36
2022-08-03T19:40:43.276Z,28.41
2022-08-03T19:43:33.095Z,28.46
2022-08-03T19:46:16.636Z,28.63
2022-08-03T19:48:56.076Z,28.86
2022-08-03T19:52:01.057Z,28.91
2022-08-03T19:54:16.880Z,28.91
2022-08-03T19:56:59.595Z,28.92
2022-08-03T19:59:35.177Z,28.90
2022-08-03T20:02:09.182Z,28.99
2022-08-03T20:04:54.747Z,29.20
2022-08-03T20:07:25.025Z,29.42
2022-08-03T20:09:56.697Z,29.64
2022-08-03T20:12:29.117Z,29.50
2022-08-03T20:14:59.558Z,29.52
2022-08-03T20:17:54.048Z,29.65
2022-08-03T20:20:24.075Z,29.81
2022-08-03T20:22:57.680Z,29.78
2022-08-03T20:25:48.879Z,29.83
2022-08-03T20:28:34.318Z,29.98
2022-08-03T20:31:02.934Z,29.99
2022-08-03T20:33:45.847Z,30.05
2022-08-03T20:36:18.983Z,30.22
2022-08-03T20:38:49.022Z,30.42
2022-08-03T20:41:18.709Z,30.72
2022-08-03T20:43:51.081Z,30.95
2022-08-03T20:46:32.035Z,31.04
2022-08-03T20:49:10.091Z,30.98
2022-08-03T20:51:49.050Z,31.10
2022-08-03T20:54:22.829Z,31.20
2022-08-03T20:56:59.580Z,31.23
2022-08-03T20:59:47.364Z,31.28
2022-08-03T21:05:11.116Z,31.35
2022-08-03T21:08:05.392Z,31.23
2022-08-03T21:10:42.056Z,31.21
2022-08-03T21:13:00.965Z,27.23
2022-08-03T21:13:12.390Z,31.24
2022-08-03T21:13:18.948Z,31.30
2022-08-03T21:16:06.164Z,31.43
2022-08-03T21:18:46.880Z,31.45
2022-08-03T21:21:18.800Z,31.53
2022-08-03T21:23:53.529Z,31.23
2022-08-03T21:26:23.888Z,31.23
2022-08-03T21:28:54.322Z,31.22
2022-08-03T21:31:25.057Z,31.19
2022-08-03T21:34:06.801Z,31.22
2022-08-03T21:36:38.637Z,31.56
2022-08-03T21:39:09.766Z,32.00
2022-08-03T21:41:40.862Z,32.19
2022-08-03T21:44:11.218Z,32.42
2022-08-03T21:46:42.157Z,32.39
2022-08-03T21:50:04.303Z,32.32
2022-08-03T21:52:06.475Z,32.26
2022-08-03T21:54:42.164Z,32.22
2022-08-03T21:57:27.082Z,32.29
2022-08-03T22:00:07.891Z,32.42
2022-08-03T22:02:39.970Z,32.47
2022-08-03T22:05:13.664Z,32.45
2022-08-03T22:07:45.497Z,32.12
2022-08-03T22:10:14.241Z,31.90
2022-08-03T22:12:43.537Z,31.76
2022-08-03T22:15:14.805Z,31.86
2022-08-03T22:17:55.596Z,32.06
2022-08-03T22:20:26.638Z,32.29
2022-08-03T22:22:57.849Z,32.23
2022-08-03T22:25:34.817Z,32.28
2022-08-03T22:28:14.403Z,32.37
2022-08-03T22:30:43.988Z,32.45
2022-08-03T22:33:13.062Z,32.57
2022-08-03T22:35:47.769Z,32.77
2022-08-03T22:38:17.452Z,32.62
2022-08-03T22:40:48.202Z,32.62
2022-08-03T22:43:16.712Z,32.56
2022-08-03T22:46:09.954Z,32.46
2022-08-03T22:48:40.809Z,32.24
2022-08-03T22:51:10.801Z,32.16
2022-08-03T22:53:40.695Z,32.01
2022-08-03T22:56:09.641Z,31.92
2022-08-03T22:58:38.163Z,31.80
2022-08-03T23:01:12.557Z,31.61
2022-08-03T23:04:00.591Z,31.48
2022-08-03T23:06:35.846Z,31.40
2022-08-03T23:09:12.819Z,31.21
2022-08-03T23:11:46.125Z,31.08
2022-08-03T23:14:17.669Z,30.96
2022-08-03T23:16:48.077Z,30.93
2022-08-03T23:19:25.384Z,30.84
2022-08-03T23:22:02.351Z,30.71
2022-08-03T23:24:36.890Z,30.49
2022-08-03T23:27:06.618Z,30.27
2022-08-03T23:29:40.222Z,30.08
2022-08-03T23:32:08.962Z,30.05
2022-08-03T23:34:58.398Z,30.01
2022-08-03T23:37:27.949Z,30.01
2022-08-03T23:39:58.232Z,29.92
2022-08-03T23:42:27.601Z,29.84
2022-08-03T23:44:59.499Z,29.76
2022-08-03T23:47:46.771Z,29.63
2022-08-03T23:50:15.917Z,29.46
2022-08-03T23:53:05.772Z,29.36
2022-08-03T23:55:42.888Z,29.17
2022-08-03T23:58:35.702Z,29.05
